Gardens Corner, South Carolina
Current Conditions -  °F | °C
As of 3:56 PM on Sunday 21 Dec 2014 (Local Time) from KNBC Reporting Station
Overcast Overcast  
Wind Chill: 45°   Ceiling: 3900
Heat Index: 48°   Visibility: 10mi
Dew Point: 45°   Wind: 7mph
Humidity: 89%   Direction: 40°NE
Pressure: 30.13"   Gusts: NA
Location:  32.642°N, 80.8085°W
Report Text: KNBC 212056Z 04006KT 10SM SCT027 OVC039 09/07 A3013 RMK AO2 SLP204 60001 T00890072 56011
Loading
Personal Weather Stations






























Interactive Weather Map New forecast layout! Learn more

10-Day Weather Forecast

Advertisements
Track Severe Weather on mobile